D'Hanis, Texas
Current Conditions -  °F | °C
As of 6:59 AM on Thursday 23 Oct 2014 (Local Time) from KHDO Reporting Station
Broken Clouds Broken Clouds  
Wind Chill: 63°   Ceiling: 1800
Heat Index: 63°   Visibility: 7mi
Dew Point: 63°   Wind: 5mph
Humidity: 100%   Direction: 30°NNE
Pressure: 30.13"   Gusts: NA
Location:  29.33°N, 99.28°W
Report Text: KHDO 231159Z AUTO 03004KT 7SM BKN018 17/17 A3013 RMK AO2 T01720172 $
Loading
Personal Weather Stations






























Interactive Weather Map
Tropical Storm Tracking
New forecast layout! Learn more

10-Day Weather Forecast

Advertisements
Track Severe Weather on mobile